sensor_id;sensor_type;location;lat;lon;timestamp;P1;durP1;ratioP1;P2;durP2;ratioP2
61003;SDS011;46889;37.310;13.582;2023-05-07T00:00:24;7.30;;;5.10;;
61003;SDS011;46889;37.310;13.582;2023-05-07T00:05:16;10.85;;;5.03;;
61003;SDS011;46889;37.310;13.582;2023-05-07T00:07:43;7.43;;;4.82;;
61003;SDS011;46889;37.310;13.582;2023-05-07T00:10:10;6.85;;;4.75;;
61003;SDS011;46889;37.310;13.582;2023-05-07T00:12:37;7.28;;;4.40;;
61003;SDS011;46889;37.310;13.582;2023-05-07T00:15:04;7.38;;;4.85;;
61003;SDS011;46889;37.310;13.582;2023-05-07T00:17:32;7.47;;;4.80;;
61003;SDS011;46889;37.310;13.582;2023-05-07T00:19:58;8.35;;;4.65;;
61003;SDS011;46889;37.310;13.582;2023-05-07T00:22:24;8.23;;;4.40;;
61003;SDS011;46889;37.310;13.582;2023-05-07T00:24:51;8.10;;;4.45;;
61003;SDS011;46889;37.310;13.582;2023-05-07T00:27:17;11.07;;;5.10;;
61003;SDS011;46889;37.310;13.582;2023-05-07T00:29:43;8.40;;;5.00;;
61003;SDS011;46889;37.310;13.582;2023-05-07T00:32:09;6.60;;;4.60;;
61003;SDS011;46889;37.310;13.582;2023-05-07T00:34:35;8.30;;;5.25;;
61003;SDS011;46889;37.310;13.582;2023-05-07T00:37:01;27.03;;;16.37;;
61003;SDS011;46889;37.310;13.582;2023-05-07T00:39:27;39.17;;;23.63;;
61003;SDS011;46889;37.310;13.582;2023-05-07T00:41:53;30.17;;;16.13;;
61003;SDS011;46889;37.310;13.582;2023-05-07T00:44:19;42.53;;;26.08;;
61003;SDS011;46889;37.310;13.582;2023-05-07T00:46:45;40.05;;;24.92;;
61003;SDS011;46889;37.310;13.582;2023-05-07T00:49:15;46.08;;;28.65;;
61003;SDS011;46889;37.310;13.582;2023-05-07T00:51:41;43.85;;;29.52;;
61003;SDS011;46889;37.310;13.582;2023-05-07T00:54:08;24.73;;;16.17;;
61003;SDS011;46889;37.310;13.582;2023-05-07T00:56:34;29.52;;;19.42;;
61003;SDS011;46889;37.310;13.582;2023-05-07T00:59:02;20.65;;;13.13;;
61003;SDS011;46889;37.310;13.582;2023-05-07T01:01:28;25.58;;;15.20;;
61003;SDS011;46889;37.310;13.582;2023-05-07T01:03:54;61.90;;;27.65;;
61003;SDS011;46889;37.310;13.582;2023-05-07T01:06:21;106.50;;;49.63;;
61003;SDS011;46889;37.310;13.582;2023-05-07T01:08:49;27.90;;;12.90;;
61003;SDS011;46889;37.310;13.582;2023-05-07T01:11:18;22.60;;;12.57;;
61003;SDS011;46889;37.310;13.582;2023-05-07T01:13:47;49.55;;;27.75;;
61003;SDS011;46889;37.310;13.582;2023-05-07T01:16:15;40.92;;;21.33;;
61003;SDS011;46889;37.310;13.582;2023-05-07T01:18:41;136.98;;;68.03;;
61003;SDS011;46889;37.310;13.582;2023-05-07T01:21:07;105.43;;;57.00;;
61003;SDS011;46889;37.310;13.582;2023-05-07T01:23:37;61.28;;;30.55;;
61003;SDS011;46889;37.310;13.582;2023-05-07T01:26:04;91.53;;;47.10;;
61003;SDS011;46889;37.310;13.582;2023-05-07T01:28:31;45.10;;;23.00;;
61003;SDS011;46889;37.310;13.582;2023-05-07T01:31:00;39.00;;;21.23;;
61003;SDS011;46889;37.310;13.582;2023-05-07T01:33:28;82.82;;;38.63;;
61003;SDS011;46889;37.310;13.582;2023-05-07T01:35:58;89.65;;;43.05;;
61003;SDS011;46889;37.310;13.582;2023-05-07T01:38:27;115.07;;;56.42;;
61003;SDS011;46889;37.310;13.582;2023-05-07T01:40:53;35.80;;;19.45;;
61003;SDS011;46889;37.310;13.582;2023-05-07T01:45:46;54.58;;;25.63;;
61003;SDS011;46889;37.310;13.582;2023-05-07T01:48:14;29.52;;;14.30;;
61003;SDS011;46889;37.310;13.582;2023-05-07T01:50:41;20.45;;;11.35;;
61003;SDS011;46889;37.310;13.582;2023-05-07T01:53:08;17.02;;;8.63;;
61003;SDS011;46889;37.310;13.582;2023-05-07T01:55:34;46.77;;;28.57;;
61003;SDS011;46889;37.310;13.582;2023-05-07T01:58:02;20.55;;;13.48;;
61003;SDS011;46889;37.310;13.582;2023-05-07T02:00:28;23.20;;;16.23;;
61003;SDS011;46889;37.310;13.582;2023-05-07T02:02:54;14.27;;;9.57;;
61003;SDS011;46889;37.310;13.582;2023-05-07T02:05:21;9.25;;;6.20;;
61003;SDS011;46889;37.310;13.582;2023-05-07T02:07:48;9.30;;;5.80;;
61003;SDS011;46889;37.310;13.582;2023-05-07T02:10:14;17.63;;;9.30;;
61003;SDS011;46889;37.310;13.582;2023-05-07T02:12:40;15.27;;;8.53;;
61003;SDS011;46889;37.310;13.582;2023-05-07T02:15:07;15.65;;;6.97;;
61003;SDS011;46889;37.310;13.582;2023-05-07T02:17:34;7.55;;;4.80;;
61003;SDS011;46889;37.310;13.582;2023-05-07T02:20:02;10.25;;;5.00;;
61003;SDS011;46889;37.310;13.582;2023-05-07T02:22:29;8.07;;;4.70;;
61003;SDS011;46889;37.310;13.582;2023-05-07T02:24:55;7.97;;;4.22;;
61003;SDS011;46889;37.310;13.582;2023-05-07T02:27:21;10.23;;;5.00;;
61003;SDS011;46889;37.310;13.582;2023-05-07T02:29:47;9.17;;;4.67;;
61003;SDS011;46889;37.310;13.582;2023-05-07T02:32:13;6.67;;;4.23;;
61003;SDS011;46889;37.310;13.582;2023-05-07T02:34:39;7.40;;;4.13;;
61003;SDS011;46889;37.310;13.582;2023-05-07T02:37:05;5.93;;;3.80;;
61003;SDS011;46889;37.310;13.582;2023-05-07T02:39:32;5.68;;;3.58;;
61003;SDS011;46889;37.310;13.582;2023-05-07T02:41:58;6.17;;;4.03;;
61003;SDS011;46889;37.310;13.582;2023-05-07T02:44:24;5.50;;;3.60;;
61003;SDS011;46889;37.310;13.582;2023-05-07T02:46:50;6.35;;;3.90;;
61003;SDS011;46889;37.310;13.582;2023-05-07T02:49:16;7.50;;;4.10;;
61003;SDS011;46889;37.310;13.582;2023-05-07T02:51:42;5.57;;;3.63;;
61003;SDS011;46889;37.310;13.582;2023-05-07T02:54:08;5.67;;;3.80;;
61003;SDS011;46889;37.310;13.582;2023-05-07T02:56:34;6.43;;;4.20;;
61003;SDS011;46889;37.310;13.582;2023-05-07T02:59:00;7.50;;;4.20;;
61003;SDS011;46889;37.310;13.582;2023-05-07T03:01:26;10.00;;;3.87;;
61003;SDS011;46889;37.310;13.582;2023-05-07T03:03:52;6.13;;;4.23;;
61003;SDS011;46889;37.310;13.582;2023-05-07T03:06:19;4.78;;;3.60;;
61003;SDS011;46889;37.310;13.582;2023-05-07T03:08:45;6.23;;;4.00;;
61003;SDS011;46889;37.310;13.582;2023-05-07T03:11:11;7.22;;;3.60;;
61003;SDS011;46889;37.310;13.582;2023-05-07T03:13:38;5.97;;;3.90;;
61003;SDS011;46889;37.310;13.582;2023-05-07T03:16:04;6.77;;;3.90;;
61003;SDS011;46889;37.310;13.582;2023-05-07T03:18:30;7.13;;;4.15;;
61003;SDS011;46889;37.310;13.582;2023-05-07T03:20:56;7.27;;;4.33;;
61003;SDS011;46889;37.310;13.582;2023-05-07T03:23:22;5.85;;;3.75;;
61003;SDS011;46889;37.310;13.582;2023-05-07T03:25:48;6.73;;;4.00;;
61003;SDS011;46889;37.310;13.582;2023-05-07T03:28:14;6.83;;;4.50;;
61003;SDS011;46889;37.310;13.582;2023-05-07T03:30:41;6.38;;;3.92;;
61003;SDS011;46889;37.310;13.582;2023-05-07T03:33:07;6.93;;;3.83;;
61003;SDS011;46889;37.310;13.582;2023-05-07T03:35:33;8.47;;;4.00;;
61003;SDS011;46889;37.310;13.582;2023-05-07T03:37:59;5.93;;;3.47;;
61003;SDS011;46889;37.310;13.582;2023-05-07T03:40:25;8.30;;;3.70;;
61003;SDS011;46889;37.310;13.582;2023-05-07T03:42:52;9.05;;;3.70;;
61003;SDS011;46889;37.310;13.582;2023-05-07T03:45:18;5.30;;;3.70;;
61003;SDS011;46889;37.310;13.582;2023-05-07T03:47:45;7.82;;;3.75;;
61003;SDS011;46889;37.310;13.582;2023-05-07T03:50:11;7.03;;;3.20;;
61003;SDS011;46889;37.310;13.582;2023-05-07T03:52:37;9.07;;;3.75;;
61003;SDS011;46889;37.310;13.582;2023-05-07T03:55:03;8.27;;;4.10;;
61003;SDS011;46889;37.310;13.582;2023-05-07T03:57:29;5.57;;;3.30;;
61003;SDS011;46889;37.310;13.582;2023-05-07T03:59:55;5.95;;;3.35;;
61003;SDS011;46889;37.310;13.582;2023-05-07T04:02:21;6.30;;;3.60;;
61003;SDS011;46889;37.310;13.582;2023-05-07T04:04:48;12.35;;;3.92;;
61003;SDS011;46889;37.310;13.582;2023-05-07T04:07:15;6.57;;;3.80;;
61003;SDS011;46889;37.310;13.582;2023-05-07T04:09:48;7.50;;;3.47;;
61003;SDS011;46889;37.310;13.582;2023-05-07T04:12:16;10.60;;;3.85;;
61003;SDS011;46889;37.310;13.582;2023-05-07T04:14:42;4.47;;;3.42;;
61003;SDS011;46889;37.310;13.582;2023-05-07T04:17:08;5.17;;;3.60;;
61003;SDS011;46889;37.310;13.582;2023-05-07T04:19:35;7.97;;;3.78;;
61003;SDS011;46889;37.310;13.582;2023-05-07T04:22:02;5.78;;;3.85;;
61003;SDS011;46889;37.310;13.582;2023-05-07T04:24:33;7.05;;;3.55;;
61003;SDS011;46889;37.310;13.582;2023-05-07T04:26:59;8.40;;;4.13;;
61003;SDS011;46889;37.310;13.582;2023-05-07T04:29:25;7.00;;;4.53;;
61003;SDS011;46889;37.310;13.582;2023-05-07T04:31:52;6.57;;;3.65;;
61003;SDS011;46889;37.310;13.582;2023-05-07T04:34:21;7.80;;;3.85;;
61003;SDS011;46889;37.310;13.582;2023-05-07T04:36:47;7.07;;;4.00;;
61003;SDS011;46889;37.310;13.582;2023-05-07T04:39:13;8.00;;;4.37;;
61003;SDS011;46889;37.310;13.582;2023-05-07T04:41:40;6.88;;;4.28;;
61003;SDS011;46889;37.310;13.582;2023-05-07T04:44:06;6.73;;;3.87;;
61003;SDS011;46889;37.310;13.582;2023-05-07T04:46:34;8.27;;;4.53;;
61003;SDS011;46889;37.310;13.582;2023-05-07T04:49:01;9.55;;;4.10;;
61003;SDS011;46889;37.310;13.582;2023-05-07T04:51:28;5.90;;;3.42;;
61003;SDS011;46889;37.310;13.582;2023-05-07T04:53:54;8.77;;;3.90;;
61003;SDS011;46889;37.310;13.582;2023-05-07T04:56:20;7.10;;;3.90;;
61003;SDS011;46889;37.310;13.582;2023-05-07T04:58:46;4.90;;;3.70;;
61003;SDS011;46889;37.310;13.582;2023-05-07T05:01:12;5.10;;;3.58;;
61003;SDS011;46889;37.310;13.582;2023-05-07T05:03:38;6.53;;;3.90;;
61003;SDS011;46889;37.310;13.582;2023-05-07T05:06:04;9.68;;;4.05;;
61003;SDS011;46889;37.310;13.582;2023-05-07T05:08:31;6.25;;;3.53;;
61003;SDS011;46889;37.310;13.582;2023-05-07T05:10:57;5.65;;;3.58;;
61003;SDS011;46889;37.310;13.582;2023-05-07T05:13:23;7.15;;;3.70;;
61003;SDS011;46889;37.310;13.582;2023-05-07T05:15:49;6.60;;;3.08;;
61003;SDS011;46889;37.310;13.582;2023-05-07T05:18:15;8.90;;;3.53;;
61003;SDS011;46889;37.310;13.582;2023-05-07T05:20:41;6.47;;;3.70;;
61003;SDS011;46889;37.310;13.582;2023-05-07T05:23:07;5.18;;;3.17;;
61003;SDS011;46889;37.310;13.582;2023-05-07T05:25:34;6.90;;;3.10;;
61003;SDS011;46889;37.310;13.582;2023-05-07T05:28:00;7.97;;;3.35;;
61003;SDS011;46889;37.310;13.582;2023-05-07T05:30:26;23.75;;;4.15;;
61003;SDS011;46889;37.310;13.582;2023-05-07T05:32:52;11.35;;;3.10;;
61003;SDS011;46889;37.310;13.582;2023-05-07T05:35:18;6.03;;;3.20;;
61003;SDS011;46889;37.310;13.582;2023-05-07T05:37:44;6.68;;;3.75;;
61003;SDS011;46889;37.310;13.582;2023-05-07T05:40:10;7.57;;;3.55;;
61003;SDS011;46889;37.310;13.582;2023-05-07T05:42:37;6.97;;;3.70;;
61003;SDS011;46889;37.310;13.582;2023-05-07T05:45:03;9.25;;;3.80;;
61003;SDS011;46889;37.310;13.582;2023-05-07T05:47:29;8.10;;;4.13;;
61003;SDS011;46889;37.310;13.582;2023-05-07T05:49:55;9.30;;;3.75;;
61003;SDS011;46889;37.310;13.582;2023-05-07T05:52:21;6.55;;;3.88;;
61003;SDS011;46889;37.310;13.582;2023-05-07T05:54:49;8.95;;;4.20;;
61003;SDS011;46889;37.310;13.582;2023-05-07T05:57:15;6.15;;;3.78;;
61003;SDS011;46889;37.310;13.582;2023-05-07T06:02:07;7.97;;;3.50;;
61003;SDS011;46889;37.310;13.582;2023-05-07T06:07:00;8.07;;;3.15;;
61003;SDS011;46889;37.310;13.582;2023-05-07T06:09:26;7.85;;;3.25;;
61003;SDS011;46889;37.310;13.582;2023-05-07T06:11:52;6.55;;;3.35;;
61003;SDS011;46889;37.310;13.582;2023-05-07T06:14:18;6.82;;;3.78;;
61003;SDS011;46889;37.310;13.582;2023-05-07T06:19:15;6.47;;;3.80;;
61003;SDS011;46889;37.310;13.582;2023-05-07T06:21:43;6.07;;;3.10;;
61003;SDS011;46889;37.310;13.582;2023-05-07T06:24:10;5.13;;;3.13;;
61003;SDS011;46889;37.310;13.582;2023-05-07T06:29:02;9.25;;;3.35;;
61003;SDS011;46889;37.310;13.582;2023-05-07T06:31:30;6.32;;;2.90;;
61003;SDS011;46889;37.310;13.582;2023-05-07T06:33:57;5.72;;;2.90;;
61003;SDS011;46889;37.310;13.582;2023-05-07T06:36:24;6.90;;;3.35;;
61003;SDS011;46889;37.310;13.582;2023-05-07T06:41:15;6.78;;;3.10;;
61003;SDS011;46889;37.310;13.582;2023-05-07T06:43:41;16.42;;;3.72;;
61003;SDS011;46889;37.310;13.582;2023-05-07T06:48:33;6.32;;;3.33;;
61003;SDS011;46889;37.310;13.582;2023-05-07T06:50:59;4.10;;;2.53;;
61003;SDS011;46889;37.310;13.582;2023-05-07T06:53:25;7.40;;;2.80;;
61003;SDS011;46889;37.310;13.582;2023-05-07T06:55:53;4.45;;;2.42;;
61003;SDS011;46889;37.310;13.582;2023-05-07T06:58:19;6.43;;;2.70;;
61003;SDS011;46889;37.310;13.582;2023-05-07T07:00:45;3.97;;;2.47;;
61003;SDS011;46889;37.310;13.582;2023-05-07T07:03:11;5.15;;;2.83;;
61003;SDS011;46889;37.310;13.582;2023-05-07T07:05:37;5.97;;;2.78;;
61003;SDS011;46889;37.310;13.582;2023-05-07T07:08:05;6.38;;;2.50;;
61003;SDS011;46889;37.310;13.582;2023-05-07T07:10:31;5.43;;;2.17;;
61003;SDS011;46889;37.310;13.582;2023-05-07T07:12:57;3.30;;;2.30;;
61003;SDS011;46889;37.310;13.582;2023-05-07T07:15:24;6.82;;;2.40;;
61003;SDS011;46889;37.310;13.582;2023-05-07T07:17:56;3.97;;;2.08;;
61003;SDS011;46889;37.310;13.582;2023-05-07T07:22:48;5.18;;;2.80;;
61003;SDS011;46889;37.310;13.582;2023-05-07T07:25:14;9.50;;;2.60;;
61003;SDS011;46889;37.310;13.582;2023-05-07T07:27:40;4.70;;;2.70;;
61003;SDS011;46889;37.310;13.582;2023-05-07T07:30:06;8.85;;;3.08;;
61003;SDS011;46889;37.310;13.582;2023-05-07T07:32:33;4.68;;;2.75;;
61003;SDS011;46889;37.310;13.582;2023-05-07T07:35:00;4.88;;;3.00;;
61003;SDS011;46889;37.310;13.582;2023-05-07T07:37:26;4.80;;;2.83;;
61003;SDS011;46889;37.310;13.582;2023-05-07T07:39:52;5.75;;;3.33;;
61003;SDS011;46889;37.310;13.582;2023-05-07T07:42:19;3.90;;;2.97;;
61003;SDS011;46889;37.310;13.582;2023-05-07T07:44:45;4.72;;;3.33;;
61003;SDS011;46889;37.310;13.582;2023-05-07T07:47:11;13.25;;;3.80;;
61003;SDS011;46889;37.310;13.582;2023-05-07T07:49:37;5.97;;;3.50;;
61003;SDS011;46889;37.310;13.582;2023-05-07T07:52:03;11.70;;;3.10;;
61003;SDS011;46889;37.310;13.582;2023-05-07T07:54:29;4.85;;;3.20;;
61003;SDS011;46889;37.310;13.582;2023-05-07T07:59:22;6.43;;;3.40;;
61003;SDS011;46889;37.310;13.582;2023-05-07T08:01:48;5.45;;;3.30;;
61003;SDS011;46889;37.310;13.582;2023-05-07T08:04:15;6.55;;;3.40;;
61003;SDS011;46889;37.310;13.582;2023-05-07T08:06:41;6.28;;;3.80;;
61003;SDS011;46889;37.310;13.582;2023-05-07T08:09:07;6.05;;;4.28;;
61003;SDS011;46889;37.310;13.582;2023-05-07T08:11:34;5.38;;;4.07;;
61003;SDS011;46889;37.310;13.582;2023-05-07T08:14:00;7.20;;;3.80;;
61003;SDS011;46889;37.310;13.582;2023-05-07T08:16:26;10.00;;;4.45;;
61003;SDS011;46889;37.310;13.582;2023-05-07T08:18:53;5.75;;;4.60;;
61003;SDS011;46889;37.310;13.582;2023-05-07T08:21:19;7.38;;;4.88;;
61003;SDS011;46889;37.310;13.582;2023-05-07T08:23:45;6.22;;;4.80;;
61003;SDS011;46889;37.310;13.582;2023-05-07T08:26:11;8.88;;;4.53;;
61003;SDS011;46889;37.310;13.582;2023-05-07T08:28:37;5.38;;;3.53;;
61003;SDS011;46889;37.310;13.582;2023-05-07T08:31:04;6.93;;;4.00;;
61003;SDS011;46889;37.310;13.582;2023-05-07T08:33:30;6.57;;;4.22;;
61003;SDS011;46889;37.310;13.582;2023-05-07T08:35:57;6.75;;;4.03;;
61003;SDS011;46889;37.310;13.582;2023-05-07T08:38:23;6.10;;;4.70;;
61003;SDS011;46889;37.310;13.582;2023-05-07T08:40:49;6.72;;;4.10;;
61003;SDS011;46889;37.310;13.582;2023-05-07T08:43:15;15.05;;;4.40;;
61003;SDS011;46889;37.310;13.582;2023-05-07T08:45:43;6.57;;;3.70;;
61003;SDS011;46889;37.310;13.582;2023-05-07T08:48:15;6.80;;;3.10;;
61003;SDS011;46889;37.310;13.582;2023-05-07T08:50:42;4.07;;;3.08;;
61003;SDS011;46889;37.310;13.582;2023-05-07T08:53:08;6.22;;;3.13;;
61003;SDS011;46889;37.310;13.582;2023-05-07T08:55:44;5.07;;;2.60;;
61003;SDS011;46889;37.310;13.582;2023-05-07T08:58:11;13.90;;;3.90;;
61003;SDS011;46889;37.310;13.582;2023-05-07T09:00:37;5.40;;;2.50;;
61003;SDS011;46889;37.310;13.582;2023-05-07T09:03:05;3.72;;;2.10;;
61003;SDS011;46889;37.310;13.582;2023-05-07T09:05:31;5.15;;;2.13;;
61003;SDS011;46889;37.310;13.582;2023-05-07T09:08:04;4.22;;;1.90;;
61003;SDS011;46889;37.310;13.582;2023-05-07T09:10:34;4.15;;;2.10;;
61003;SDS011;46889;37.310;13.582;2023-05-07T09:13:02;4.50;;;1.90;;
61003;SDS011;46889;37.310;13.582;2023-05-07T09:15:29;4.72;;;1.70;;
61003;SDS011;46889;37.310;13.582;2023-05-07T09:17:59;3.47;;;1.70;;
61003;SDS011;46889;37.310;13.582;2023-05-07T09:20:29;5.40;;;1.70;;
61003;SDS011;46889;37.310;13.582;2023-05-07T09:22:56;9.15;;;1.67;;
61003;SDS011;46889;37.310;13.582;2023-05-07T09:25:29;6.20;;;1.80;;
61003;SDS011;46889;37.310;13.582;2023-05-07T09:27:56;4.47;;;1.65;;
61003;SDS011;46889;37.310;13.582;2023-05-07T09:30:23;3.60;;;1.40;;
61003;SDS011;46889;37.310;13.582;2023-05-07T09:32:56;3.58;;;1.40;;
61003;SDS011;46889;37.310;13.582;2023-05-07T09:35:24;2.83;;;1.23;;
61003;SDS011;46889;37.310;13.582;2023-05-07T09:37:55;7.35;;;1.50;;
61003;SDS011;46889;37.310;13.582;2023-05-07T09:40:27;2.22;;;1.17;;
61003;SDS011;46889;37.310;13.582;2023-05-07T09:42:54;3.45;;;1.50;;
61003;SDS011;46889;37.310;13.582;2023-05-07T09:47:49;5.70;;;1.50;;
61003;SDS011;46889;37.310;13.582;2023-05-07T09:50:22;2.70;;;1.48;;
61003;SDS011;46889;37.310;13.582;2023-05-07T09:52:54;3.22;;;1.38;;
61003;SDS011;46889;37.310;13.582;2023-05-07T09:55:21;4.70;;;1.50;;
61003;SDS011;46889;37.310;13.582;2023-05-07T09:57:50;6.88;;;1.20;;
61003;SDS011;46889;37.310;13.582;2023-05-07T10:00:18;8.18;;;1.60;;
61003;SDS011;46889;37.310;13.582;2023-05-07T10:02:47;7.18;;;1.63;;
61003;SDS011;46889;37.310;13.582;2023-05-07T10:05:16;7.80;;;1.30;;
61003;SDS011;46889;37.310;13.582;2023-05-07T10:07:43;2.40;;;1.20;;
61003;SDS011;46889;37.310;13.582;2023-05-07T10:10:10;5.10;;;1.50;;
61003;SDS011;46889;37.310;13.582;2023-05-07T10:12:36;7.78;;;1.50;;
61003;SDS011;46889;37.310;13.582;2023-05-07T10:15:07;3.35;;;1.33;;
61003;SDS011;46889;37.310;13.582;2023-05-07T10:17:37;8.50;;;1.85;;
61003;SDS011;46889;37.310;13.582;2023-05-07T10:20:08;4.93;;;1.77;;
61003;SDS011;46889;37.310;13.582;2023-05-07T10:22:37;4.78;;;1.48;;
61003;SDS011;46889;37.310;13.582;2023-05-07T10:25:14;10.85;;;2.10;;
61003;SDS011;46889;37.310;13.582;2023-05-07T10:27:46;3.67;;;1.50;;
61003;SDS011;46889;37.310;13.582;2023-05-07T10:33:06;3.70;;;1.42;;
61003;SDS011;46889;37.310;13.582;2023-05-07T10:35:39;10.23;;;1.90;;
61003;SDS011;46889;37.310;13.582;2023-05-07T10:38:08;4.15;;;1.60;;
61003;SDS011;46889;37.310;13.582;2023-05-07T10:40:35;5.80;;;1.88;;
61003;SDS011;46889;37.310;13.582;2023-05-07T10:43:05;6.93;;;2.22;;
61003;SDS011;46889;37.310;13.582;2023-05-07T10:45:31;4.50;;;1.90;;
61003;SDS011;46889;37.310;13.582;2023-05-07T10:48:11;4.38;;;1.80;;
61003;SDS011;46889;37.310;13.582;2023-05-07T10:50:41;4.63;;;1.63;;
61003;SDS011;46889;37.310;13.582;2023-05-07T10:55:46;2.60;;;1.37;;
61003;SDS011;46889;37.310;13.582;2023-05-07T10:58:26;2.70;;;1.38;;
61003;SDS011;46889;37.310;13.582;2023-05-07T11:01:02;3.20;;;1.60;;
61003;SDS011;46889;37.310;13.582;2023-05-07T11:03:29;3.63;;;1.52;;
61003;SDS011;46889;37.310;13.582;2023-05-07T11:11:18;3.42;;;1.70;;
61003;SDS011;46889;37.310;13.582;2023-05-07T11:13:48;5.60;;;1.85;;
61003;SDS011;46889;37.310;13.582;2023-05-07T11:16:19;6.47;;;1.38;;
61003;SDS011;46889;37.310;13.582;2023-05-07T11:18:52;8.05;;;1.50;;
61003;SDS011;46889;37.310;13.582;2023-05-07T11:21:39;5.75;;;1.60;;
61003;SDS011;46889;37.310;13.582;2023-05-07T11:26:43;2.53;;;1.27;;
61003;SDS011;46889;37.310;13.582;2023-05-07T11:29:14;3.80;;;1.60;;
61003;SDS011;46889;37.310;13.582;2023-05-07T11:31:48;3.75;;;1.60;;
61003;SDS011;46889;37.310;13.582;2023-05-07T11:34:24;2.20;;;1.30;;
61003;SDS011;46889;37.310;13.582;2023-05-07T11:36:51;4.22;;;1.65;;
61003;SDS011;46889;37.310;13.582;2023-05-07T11:39:24;3.40;;;1.60;;
61003;SDS011;46889;37.310;13.582;2023-05-07T11:41:51;3.88;;;2.05;;
61003;SDS011;46889;37.310;13.582;2023-05-07T11:44:17;3.45;;;1.60;;
61003;SDS011;46889;37.310;13.582;2023-05-07T11:46:43;4.15;;;1.48;;
61003;SDS011;46889;37.310;13.582;2023-05-07T11:49:10;5.50;;;3.53;;
61003;SDS011;46889;37.310;13.582;2023-05-07T11:51:36;3.30;;;1.70;;
61003;SDS011;46889;37.310;13.582;2023-05-07T11:54:05;2.83;;;1.23;;
61003;SDS011;46889;37.310;13.582;2023-05-07T11:56:34;2.92;;;1.23;;
61003;SDS011;46889;37.310;13.582;2023-05-07T11:59:04;3.97;;;1.13;;
61003;SDS011;46889;37.310;13.582;2023-05-07T12:01:30;3.15;;;1.10;;
61003;SDS011;46889;37.310;13.582;2023-05-07T12:03:56;2.30;;;1.10;;
61003;SDS011;46889;37.310;13.582;2023-05-07T12:06:22;4.43;;;1.40;;
61003;SDS011;46889;37.310;13.582;2023-05-07T12:08:48;2.22;;;1.00;;
61003;SDS011;46889;37.310;13.582;2023-05-07T12:11:15;3.17;;;1.23;;
61003;SDS011;46889;37.310;13.582;2023-05-07T12:13:47;4.68;;;1.25;;
61003;SDS011;46889;37.310;13.582;2023-05-07T12:16:13;4.07;;;1.27;;
61003;SDS011;46889;37.310;13.582;2023-05-07T12:18:40;3.67;;;1.13;;
61003;SDS011;46889;37.310;13.582;2023-05-07T12:21:08;5.82;;;1.10;;
61003;SDS011;46889;37.310;13.582;2023-05-07T12:23:35;3.47;;;1.20;;
61003;SDS011;46889;37.310;13.582;2023-05-07T12:26:02;2.20;;;0.98;;
61003;SDS011;46889;37.310;13.582;2023-05-07T12:28:28;1.77;;;1.00;;
61003;SDS011;46889;37.310;13.582;2023-05-07T12:30:55;4.85;;;0.90;;
61003;SDS011;46889;37.310;13.582;2023-05-07T12:33:26;2.90;;;0.90;;
61003;SDS011;46889;37.310;13.582;2023-05-07T12:35:54;2.55;;;1.00;;
61003;SDS011;46889;37.310;13.582;2023-05-07T12:38:21;2.03;;;1.10;;
61003;SDS011;46889;37.310;13.582;2023-05-07T12:40:50;1.90;;;0.80;;
61003;SDS011;46889;37.310;13.582;2023-05-07T12:43:24;3.17;;;1.08;;
61003;SDS011;46889;37.310;13.582;2023-05-07T12:45:51;13.65;;;1.20;;
61003;SDS011;46889;37.310;13.582;2023-05-07T12:48:22;1.77;;;0.90;;
61003;SDS011;46889;37.310;13.582;2023-05-07T12:50:55;4.03;;;1.20;;
61003;SDS011;46889;37.310;13.582;2023-05-07T12:53:24;2.47;;;0.90;;
61003;SDS011;46889;37.310;13.582;2023-05-07T12:55:55;2.40;;;0.90;;
61003;SDS011;46889;37.310;13.582;2023-05-07T12:58:25;2.05;;;0.90;;
61003;SDS011;46889;37.310;13.582;2023-05-07T13:00:53;2.20;;;0.82;;
61003;SDS011;46889;37.310;13.582;2023-05-07T13:03:24;2.00;;;0.90;;
61003;SDS011;46889;37.310;13.582;2023-05-07T13:05:54;2.40;;;1.10;;
61003;SDS011;46889;37.310;13.582;2023-05-07T13:08:28;3.85;;;1.20;;
61003;SDS011;46889;37.310;13.582;2023-05-07T13:10:54;2.75;;;1.10;;
61003;SDS011;46889;37.310;13.582;2023-05-07T13:13:21;5.00;;;1.20;;
61003;SDS011;46889;37.310;13.582;2023-05-07T13:15:47;3.60;;;1.30;;
61003;SDS011;46889;37.310;13.582;2023-05-07T13:18:16;2.60;;;1.08;;
61003;SDS011;46889;37.310;13.582;2023-05-07T13:20:43;6.15;;;1.60;;
61003;SDS011;46889;37.310;13.582;2023-05-07T13:23:09;3.78;;;1.10;;
61003;SDS011;46889;37.310;13.582;2023-05-07T13:25:35;2.95;;;1.40;;
61003;SDS011;46889;37.310;13.582;2023-05-07T13:28:01;6.72;;;1.38;;
61003;SDS011;46889;37.310;13.582;2023-05-07T13:30:27;2.10;;;1.30;;
61003;SDS011;46889;37.310;13.582;2023-05-07T13:32:55;3.47;;;1.45;;
61003;SDS011;46889;37.310;13.582;2023-05-07T13:35:21;4.78;;;1.40;;
61003;SDS011;46889;37.310;13.582;2023-05-07T13:37:47;2.78;;;1.58;;
61003;SDS011;46889;37.310;13.582;2023-05-07T13:40:14;3.40;;;1.55;;
61003;SDS011;46889;37.310;13.582;2023-05-07T13:42:41;2.47;;;1.38;;
61003;SDS011;46889;37.310;13.582;2023-05-07T13:45:07;3.67;;;1.63;;
61003;SDS011;46889;37.310;13.582;2023-05-07T13:47:34;5.18;;;1.70;;
61003;SDS011;46889;37.310;13.582;2023-05-07T13:50:00;5.53;;;1.90;;
61003;SDS011;46889;37.310;13.582;2023-05-07T13:52:26;4.90;;;2.00;;
61003;SDS011;46889;37.310;13.582;2023-05-07T13:54:52;4.95;;;2.25;;
61003;SDS011;46889;37.310;13.582;2023-05-07T13:57:20;4.47;;;2.63;;
61003;SDS011;46889;37.310;13.582;2023-05-07T13:59:46;4.28;;;3.08;;
61003;SDS011;46889;37.310;13.582;2023-05-07T14:02:12;5.70;;;3.13;;
61003;SDS011;46889;37.310;13.582;2023-05-07T14:04:38;4.80;;;2.50;;
61003;SDS011;46889;37.310;13.582;2023-05-07T14:07:04;7.40;;;2.80;;
61003;SDS011;46889;37.310;13.582;2023-05-07T14:09:30;4.55;;;3.00;;
61003;SDS011;46889;37.310;13.582;2023-05-07T14:11:56;5.95;;;3.05;;
61003;SDS011;46889;37.310;13.582;2023-05-07T14:14:24;5.32;;;3.38;;
61003;SDS011;46889;37.310;13.582;2023-05-07T14:16:50;5.97;;;3.88;;
61003;SDS011;46889;37.310;13.582;2023-05-07T14:19:16;4.50;;;3.13;;
61003;SDS011;46889;37.310;13.582;2023-05-07T14:21:42;6.22;;;3.28;;
61003;SDS011;46889;37.310;13.582;2023-05-07T14:24:08;10.73;;;3.80;;
61003;SDS011;46889;37.310;13.582;2023-05-07T14:26:34;7.50;;;3.72;;
61003;SDS011;46889;37.310;13.582;2023-05-07T14:29:01;7.28;;;3.90;;
61003;SDS011;46889;37.310;13.582;2023-05-07T14:31:27;9.07;;;5.60;;
61003;SDS011;46889;37.310;13.582;2023-05-07T14:33:54;5.30;;;3.88;;
61003;SDS011;46889;37.310;13.582;2023-05-07T14:36:23;9.52;;;5.43;;
61003;SDS011;46889;37.310;13.582;2023-05-07T14:38:51;6.88;;;4.40;;
61003;SDS011;46889;37.310;13.582;2023-05-07T14:41:19;8.13;;;5.22;;
61003;SDS011;46889;37.310;13.582;2023-05-07T14:43:46;9.63;;;4.60;;
61003;SDS011;46889;37.310;13.582;2023-05-07T14:46:15;7.72;;;4.45;;
61003;SDS011;46889;37.310;13.582;2023-05-07T14:48:43;6.35;;;3.55;;
61003;SDS011;46889;37.310;13.582;2023-05-07T14:51:10;5.05;;;3.28;;
61003;SDS011;46889;37.310;13.582;2023-05-07T14:53:36;4.30;;;2.95;;
61003;SDS011;46889;37.310;13.582;2023-05-07T14:56:03;9.40;;;3.85;;
61003;SDS011;46889;37.310;13.582;2023-05-07T14:58:29;5.47;;;3.70;;
61003;SDS011;46889;37.310;13.582;2023-05-07T15:00:56;6.93;;;4.45;;
61003;SDS011;46889;37.310;13.582;2023-05-07T15:03:22;9.35;;;4.30;;
61003;SDS011;46889;37.310;13.582;2023-05-07T15:05:48;7.43;;;4.30;;
61003;SDS011;46889;37.310;13.582;2023-05-07T15:08:16;9.60;;;3.40;;
61003;SDS011;46889;37.310;13.582;2023-05-07T15:13:09;4.50;;;3.28;;